createdAt,value
2018-12-16T00:00:41.984Z,97701.41
2018-12-16T00:03:49.367Z,97692.16
2018-12-16T00:06:56.681Z,97685.48
2018-12-16T00:10:02.687Z,97679.23
2018-12-16T00:13:10.879Z,97678.18
2018-12-16T00:16:16.782Z,97671.68
2018-12-16T00:19:22.695Z,97661.53
2018-12-16T00:22:29.925Z,97653.02
2018-12-16T00:25:36.663Z,97652.48
2018-12-16T00:28:42.612Z,97654.59
2018-12-16T00:31:48.965Z,97649.62
2018-12-16T00:34:54.930Z,97638.75
2018-12-16T00:38:00.840Z,97638.48
2018-12-16T00:41:06.768Z,97639.93
2018-12-16T00:44:13.077Z,97634.11
2018-12-16T00:47:19.006Z,97627.80
2018-12-16T00:50:24.895Z,97625.77
2018-12-16T00:53:30.926Z,97623.19
2018-12-16T00:56:38.334Z,97628.13
2018-12-16T00:59:44.358Z,97623.98
2018-12-16T01:02:49.985Z,97624.73
2018-12-16T01:05:55.616Z,97620.43
2018-12-16T01:09:01.223Z,97623.39
2018-12-16T01:12:08.895Z,97627.11
2018-12-16T01:15:14.903Z,97630.09
2018-12-16T01:18:20.609Z,97619.49
2018-12-16T01:21:26.920Z,97618.32
2018-12-16T01:24:32.847Z,97614.38
2018-12-16T01:27:38.737Z,97608.80
2018-12-16T01:30:44.904Z,97594.44
2018-12-16T01:33:50.806Z,97593.94
2018-12-16T01:36:57.316Z,97586.26
2018-12-16T01:40:03.452Z,97585.13
2018-12-16T01:43:09.374Z,97581.41
2018-12-16T01:46:15.592Z,97584.70
2018-12-16T01:49:21.229Z,97581.22
2018-12-16T01:52:27.306Z,97579.68
2018-12-16T01:55:33.231Z,97577.36
2018-12-16T01:58:39.255Z,97572.14
2018-12-16T02:01:50.642Z,97579.61
2018-12-16T02:04:56.407Z,97576.75
2018-12-16T02:08:02.882Z,97575.03
2018-12-16T02:11:08.800Z,97572.67
2018-12-16T02:14:14.730Z,97564.19
2018-12-16T02:17:20.603Z,97559.05
2018-12-16T02:20:26.548Z,97554.55
2018-12-16T02:23:32.146Z,97542.36
2018-12-16T02:26:37.812Z,97531.64
2018-12-16T02:29:43.741Z,97531.09
2018-12-16T02:32:49.378Z,97529.61
2018-12-16T02:35:55.184Z,97525.62
2018-12-16T02:39:00.872Z,97518.11
2018-12-16T02:42:07.544Z,97514.70
2018-12-16T02:45:13.383Z,97514.31
2018-12-16T02:48:19.660Z,97512.14
2018-12-16T02:51:26.849Z,97501.58
2018-12-16T02:54:34.225Z,97494.09
2018-12-16T02:57:40.238Z,97483.87
2018-12-16T03:00:46.445Z,97488.27
2018-12-16T03:03:52.467Z,97485.45
2018-12-16T03:06:58.337Z,97479.56
2018-12-16T03:10:05.678Z,97474.16
2018-12-16T03:13:11.951Z,97473.52
2018-12-16T03:16:18.626Z,97457.22
2018-12-16T03:19:24.274Z,97457.89
2018-12-16T03:22:30.271Z,97451.62
2018-12-16T03:25:36.505Z,97455.20
2018-12-16T03:28:42.450Z,97447.47
2018-12-16T03:31:48.221Z,97448.72
2018-12-16T03:34:53.887Z,97439.96
2018-12-16T03:37:59.514Z,97435.28
2018-12-16T03:41:05.896Z,97421.81
2018-12-16T03:44:11.770Z,97414.77
2018-12-16T03:47:17.818Z,97410.23
2018-12-16T03:50:23.768Z,97403.82
2018-12-16T03:53:29.394Z,97401.69
2018-12-16T03:56:34.969Z,97396.83
2018-12-16T03:59:40.612Z,97389.72
2018-12-16T04:02:46.706Z,97388.74
2018-12-16T04:05:52.673Z,97379.95
2018-12-16T04:08:58.601Z,97384.67
2018-12-16T04:12:05.190Z,97386.70
2018-12-16T04:15:11.972Z,97385.72
2018-12-16T04:18:17.881Z,97383.69
2018-12-16T04:21:23.757Z,97381.23
2018-12-16T04:24:29.426Z,97376.05
2018-12-16T04:27:35.316Z,97375.99
2018-12-16T04:30:41.631Z,97369.39
2018-12-16T04:33:47.891Z,97360.09
2018-12-16T04:36:53.515Z,97358.82
2018-12-16T04:39:59.126Z,97359.30
2018-12-16T04:43:04.793Z,97356.69
2018-12-16T04:46:10.663Z,97330.61
2018-12-16T04:49:16.313Z,97317.62
2018-12-16T04:52:22.177Z,97315.97
2018-12-16T04:55:27.825Z,97316.45
2018-12-16T04:58:33.865Z,97318.58
2018-12-16T05:01:39.802Z,97305.09
2018-12-16T05:04:46.041Z,97301.37
2018-12-16T05:07:51.938Z,97305.32
2018-12-16T05:10:57.846Z,97312.85
2018-12-16T05:14:03.967Z,97318.06
2018-12-16T05:17:09.564Z,97322.57
2018-12-16T05:20:15.521Z,97322.53
2018-12-16T05:23:21.107Z,97319.95
2018-12-16T05:26:26.753Z,97321.88
2018-12-16T05:29:32.696Z,97318.04
2018-12-16T05:32:38.627Z,97316.48
2018-12-16T05:35:44.783Z,97309.01
2018-12-16T05:38:50.724Z,97312.05
2018-12-16T05:41:56.583Z,97299.52
2018-12-16T05:45:02.513Z,97308.39
2018-12-16T05:48:08.757Z,97304.97
2018-12-16T05:51:14.672Z,97307.98
2018-12-16T05:54:20.606Z,97293.06
2018-12-16T05:57:26.377Z,97296.65
2018-12-16T06:00:32.434Z,97294.98
2018-12-16T06:03:38.458Z,97287.48
2018-12-16T06:06:44.159Z,97279.59
2018-12-16T06:09:49.785Z,97280.37
2018-12-16T06:12:55.657Z,97266.97
2018-12-16T06:16:01.586Z,97261.86
2018-12-16T06:19:07.292Z,97267.22
2018-12-16T06:22:12.894Z,97259.61
2018-12-16T06:25:18.514Z,97258.75
2018-12-16T06:28:24.148Z,97252.62
2018-12-16T06:31:29.756Z,97246.02
2018-12-16T06:34:35.676Z,97248.70
2018-12-16T06:37:41.574Z,97244.25
2018-12-16T06:40:47.759Z,97232.96
2018-12-16T06:43:53.659Z,97236.41
2018-12-16T06:46:59.309Z,97234.58
2018-12-16T06:50:06.955Z,97224.50
2018-12-16T06:53:12.883Z,97227.30
2018-12-16T06:56:19.113Z,97222.59
2018-12-16T06:59:25.024Z,97218.47
2018-12-16T07:02:30.979Z,97214.29
2018-12-16T07:05:36.900Z,97213.73
2018-12-16T07:08:43.048Z,97215.05
2018-12-16T07:11:49.611Z,97215.52
2018-12-16T07:14:55.656Z,97225.59
2018-12-16T07:18:04.295Z,97219.70
2018-12-16T07:21:12.018Z,97215.61
2018-12-16T07:24:17.837Z,97217.63
2018-12-16T07:27:24.085Z,97206.08
2018-12-16T07:30:30.044Z,97203.31
2018-12-16T07:33:35.942Z,97206.70
2018-12-16T07:36:41.893Z,97211.17
2018-12-16T07:39:47.855Z,97216.73
2018-12-16T07:42:53.810Z,97213.16
2018-12-16T07:45:59.875Z,97220.53
2018-12-16T07:49:06.318Z,97223.20
2018-12-16T07:52:11.959Z,97232.44
2018-12-16T07:55:18.651Z,97226.03
2018-12-16T07:58:25.045Z,97218.13
2018-12-16T08:01:30.939Z,97218.40
2018-12-16T08:04:36.829Z,97207.83
2018-12-16T08:07:42.566Z,97200.72
2018-12-16T08:10:49.168Z,97191.95
2018-12-16T08:13:55.316Z,97194.80
2018-12-16T08:19:06.848Z,97196.08
2018-12-16T08:22:08.834Z,97196.80
2018-12-16T08:25:14.917Z,97189.66
2018-12-16T08:28:20.853Z,97189.26
2018-12-16T08:31:26.900Z,97182.17
2018-12-16T08:34:34.095Z,97171.73
2018-12-16T08:37:40.245Z,97174.70
2018-12-16T08:40:46.422Z,97164.30
2018-12-16T08:43:52.373Z,97168.55
2018-12-16T08:46:58.247Z,97166.88
2018-12-16T08:50:05.621Z,97152.73
2018-12-16T08:53:13.179Z,97151.51
2018-12-16T08:56:19.218Z,97146.02
2018-12-16T08:59:25.489Z,97149.50
2018-12-16T09:02:31.450Z,97155.39
2018-12-16T09:05:37.665Z,97152.47
2018-12-16T09:08:44.379Z,97142.93
2018-12-16T09:11:50.036Z,97138.34
2018-12-16T09:14:55.676Z,97135.89
2018-12-16T09:18:01.575Z,97130.47
2018-12-16T09:21:07.417Z,97121.67
2018-12-16T09:24:13.713Z,97124.23
2018-12-16T09:27:19.344Z,97117.06
2018-12-16T09:30:25.038Z,97121.27
2018-12-16T09:33:30.724Z,97127.98
2018-12-16T09:36:36.439Z,97141.80
2018-12-16T09:39:42.080Z,97140.59
2018-12-16T09:42:47.843Z,97135.63
2018-12-16T09:45:53.530Z,97125.19
2018-12-16T09:48:59.161Z,97116.40
2018-12-16T09:52:05.632Z,97116.00
2018-12-16T09:55:11.988Z,97114.80
2018-12-16T09:58:17.976Z,97124.53
2018-12-16T10:01:24.425Z,97124.55
2018-12-16T10:04:30.771Z,97135.86
2018-12-16T10:07:37.845Z,97135.45
2018-12-16T10:10:43.642Z,97133.36
2018-12-16T10:13:49.361Z,97129.57
2018-12-16T10:16:55.015Z,97135.03
2018-12-16T10:20:00.598Z,97133.73
2018-12-16T10:23:06.468Z,97128.23
2018-12-16T10:26:12.622Z,97131.61
2018-12-16T10:29:18.627Z,97133.66
2018-12-16T10:32:24.323Z,97125.73
2018-12-16T10:35:30.241Z,97126.19
2018-12-16T10:38:36.126Z,97124.16
2018-12-16T10:41:41.761Z,97120.02
2018-12-16T10:44:47.896Z,97109.93
2018-12-16T10:47:53.891Z,97099.92
2018-12-16T10:51:01.211Z,97096.63
2018-12-16T10:54:07.197Z,97095.00
2018-12-16T10:57:13.287Z,97087.05
2018-12-16T11:00:24.562Z,97086.22
2018-12-16T11:03:30.518Z,97077.00
2018-12-16T11:06:36.445Z,97071.97
2018-12-16T11:09:43.290Z,97061.48
2018-12-16T11:12:49.985Z,97062.72
2018-12-16T11:15:55.599Z,97053.52
2018-12-16T11:19:01.453Z,97048.50
2018-12-16T11:22:07.376Z,97048.10
2018-12-16T11:25:16.255Z,97050.64
2018-12-16T11:28:22.154Z,97050.22
2018-12-16T11:31:28.175Z,97038.91
2018-12-16T11:34:34.085Z,97038.53
2018-12-16T11:37:40.446Z,97025.96
2018-12-16T11:40:47.142Z,97021.34
2018-12-16T11:43:53.107Z,97012.14
2018-12-16T11:46:59.189Z,97015.45
2018-12-16T11:50:06.421Z,97010.90
2018-12-16T11:53:12.408Z,96999.14
2018-12-16T11:56:18.448Z,96999.60
2018-12-16T11:59:24.530Z,97002.11
2018-12-16T12:02:32.937Z,96996.64
2018-12-16T12:05:40.546Z,96986.17
2018-12-16T12:08:46.577Z,96982.00
2018-12-16T12:11:52.635Z,96976.55
2018-12-16T12:14:58.656Z,96977.80
2018-12-16T12:18:04.304Z,96979.93
2018-12-16T12:21:09.945Z,96976.16
2018-12-16T12:24:15.576Z,96980.34
2018-12-16T12:27:21.515Z,96977.42
2018-12-16T12:30:27.528Z,96976.98
2018-12-16T12:33:33.781Z,96976.98
2018-12-16T12:36:39.942Z,96971.54
2018-12-16T12:39:45.781Z,96969.45
2018-12-16T12:42:51.674Z,96966.92
2018-12-16T12:45:57.695Z,96961.06
2018-12-16T12:49:04.109Z,96964.85
2018-12-16T12:52:10.078Z,96961.89
2018-12-16T12:55:16.033Z,96963.16
2018-12-16T12:58:22.742Z,96970.30
2018-12-16T13:01:28.628Z,96971.97
2018-12-16T13:04:35.001Z,96975.73
2018-12-16T13:07:41.274Z,96976.18
2018-12-16T13:10:47.129Z,96973.23
2018-12-16T13:13:52.804Z,96982.03
2018-12-16T13:16:58.457Z,96972.42
2018-12-16T13:20:05.056Z,96969.89
2018-12-16T13:23:11.020Z,96971.56
2018-12-16T13:26:16.717Z,96978.25
2018-12-16T13:29:22.692Z,96975.34
2018-12-16T13:32:28.666Z,96978.70
2018-12-16T13:35:34.599Z,96976.59
2018-12-16T13:38:40.600Z,96978.70
2018-12-16T13:41:46.826Z,96979.95
2018-12-16T13:44:52.700Z,96982.89
2018-12-16T13:47:58.607Z,96974.48
2018-12-16T13:51:04.971Z,96982.05
2018-12-16T13:54:10.894Z,96984.14
2018-12-16T13:57:16.818Z,96992.95
2018-12-16T14:00:23.229Z,96996.33
2018-12-16T14:03:29.196Z,96987.52
2018-12-16T14:06:35.569Z,96989.59
2018-12-16T14:09:41.472Z,97001.77
2018-12-16T14:12:48.032Z,97008.91
2018-12-16T14:15:53.623Z,97007.22
2018-12-16T14:18:59.331Z,97010.96
2018-12-16T14:22:05.210Z,97018.49
2018-12-16T14:25:11.653Z,97026.86
2018-12-16T14:28:17.561Z,97019.71
2018-12-16T14:31:24.046Z,97019.67
2018-12-16T14:34:30.012Z,97016.28
2018-12-16T14:37:36.882Z,97022.53
2018-12-16T14:40:42.730Z,97029.64
2018-12-16T14:43:48.498Z,97032.12
2018-12-16T14:46:54.183Z,97024.95
2018-12-16T14:50:00.248Z,97027.05
2018-12-16T14:53:06.136Z,97016.67
2018-12-16T14:56:12.052Z,97017.95
2018-12-16T14:59:17.930Z,97021.61
2018-12-16T15:02:23.844Z,97017.81
2018-12-16T15:05:29.491Z,97018.67
2018-12-16T15:08:36.299Z,97026.94
2018-12-16T15:11:42.627Z,97018.58
2018-12-16T15:14:48.972Z,97021.94
2018-12-16T15:17:54.851Z,97014.45
2018-12-16T15:21:00.459Z,97017.38
2018-12-16T15:24:06.523Z,97022.05
2018-12-16T15:27:12.548Z,97030.44
2018-12-16T15:30:18.484Z,97042.90
2018-12-16T15:33:24.585Z,97047.14
2018-12-16T15:36:30.170Z,97046.28
2018-12-16T15:39:35.799Z,97049.24
2018-12-16T15:42:41.420Z,97044.16
2018-12-16T15:45:47.661Z,97041.22
2018-12-16T15:48:53.573Z,97047.54
2018-12-16T15:51:59.535Z,97051.28
2018-12-16T15:55:09.233Z,97055.45
2018-12-16T15:58:15.924Z,97056.70
2018-12-16T16:01:22.967Z,97054.19
2018-12-16T16:04:28.636Z,97050.81
2018-12-16T16:07:35.080Z,97057.95
2018-12-16T16:10:41.004Z,97058.37
2018-12-16T16:13:48.092Z,97054.19
2018-12-16T16:16:54.045Z,97064.24
2018-12-16T16:19:59.918Z,97057.97
2018-12-16T16:23:06.866Z,97060.48
2018-12-16T16:26:16.368Z,97070.55
2018-12-16T16:29:21.400Z,97070.15
2018-12-16T16:32:27.345Z,97076.45
2018-12-16T16:35:33.080Z,97078.55
2018-12-16T16:38:38.658Z,97081.95
2018-12-16T16:41:44.418Z,97089.97
2018-12-16T16:44:50.395Z,97084.52
2018-12-16T16:47:56.324Z,97088.67
2018-12-16T16:51:02.243Z,97084.04
2018-12-16T16:54:08.172Z,97082.81
2018-12-16T16:57:13.885Z,97087.44
2018-12-16T17:00:19.776Z,97086.20
2018-12-16T17:03:25.351Z,97089.56
2018-12-16T17:06:31.398Z,97092.09
2018-12-16T17:09:37.066Z,97096.72
2018-12-16T17:12:42.749Z,97099.20
2018-12-16T17:15:49.543Z,97095.40
2018-12-16T17:18:57.543Z,97099.19
2018-12-16T17:22:05.155Z,97098.34
2018-12-16T17:25:12.125Z,97100.03
2018-12-16T17:28:19.233Z,97098.00
2018-12-16T17:31:25.215Z,97093.78
2018-12-16T17:34:32.396Z,97094.61
2018-12-16T17:37:38.305Z,97093.34
2018-12-16T17:40:45.029Z,97093.73
2018-12-16T17:43:50.954Z,97104.66
2018-12-16T17:46:56.702Z,97107.99
2018-12-16T17:50:02.358Z,97117.69
2018-12-16T17:53:08.314Z,97116.43
2018-12-16T17:56:14.451Z,97118.51
2018-12-16T17:59:20.671Z,97111.80
2018-12-16T18:02:26.488Z,97113.91
2018-12-16T18:05:32.357Z,97119.33
2018-12-16T18:08:38.023Z,97118.09
2018-12-16T18:11:45.791Z,97118.50
2018-12-16T18:14:52.298Z,97110.13
2018-12-16T18:18:02.061Z,97109.30
2018-12-16T18:21:07.803Z,97100.94
2018-12-16T18:24:13.855Z,97105.95
2018-12-16T18:27:19.606Z,97105.52
2018-12-16T18:30:25.237Z,97116.44
2018-12-16T18:33:32.148Z,97119.36
2018-12-16T18:36:38.503Z,97128.19
2018-12-16T18:39:44.357Z,97126.58
2018-12-16T18:42:50.213Z,97121.90
2018-12-16T18:45:56.442Z,97119.39
2018-12-16T18:49:02.345Z,97124.02
2018-12-16T18:52:08.253Z,97126.14
2018-12-16T18:55:14.023Z,97124.06
2018-12-16T18:58:19.720Z,97124.84
2018-12-16T19:01:25.574Z,97123.18
2018-12-16T19:04:31.235Z,97133.66
2018-12-16T19:07:36.882Z,97131.12
2018-12-16T19:10:43.935Z,97130.29
2018-12-16T19:13:50.256Z,97134.05
2018-12-16T19:16:56.180Z,97128.21
2018-12-16T19:20:02.408Z,97130.69
2018-12-16T19:23:08.077Z,97127.76
2018-12-16T19:26:13.740Z,97130.27
2018-12-16T19:29:20.403Z,97127.81
2018-12-16T19:32:26.001Z,97131.59
2018-12-16T19:35:32.942Z,97133.20
2018-12-16T19:38:39.508Z,97140.41
2018-12-16T19:41:49.942Z,97137.48
2018-12-16T19:44:57.269Z,97139.58
2018-12-16T19:48:04.583Z,97142.90
2018-12-16T19:51:10.731Z,97147.95
2018-12-16T19:54:16.982Z,97153.86
2018-12-16T19:57:22.925Z,97150.94
2018-12-16T20:00:28.840Z,97156.78
2018-12-16T20:03:37.234Z,97159.77
2018-12-16T20:06:48.068Z,97163.52
2018-12-16T20:09:54.149Z,97166.89
2018-12-16T20:13:00.042Z,97171.92
2018-12-16T20:16:06.835Z,97171.92
2018-12-16T20:19:13.937Z,97176.58
2018-12-16T20:22:20.229Z,97175.30
2018-12-16T20:25:26.145Z,97177.44
2018-12-16T20:28:31.744Z,97182.05
2018-12-16T20:31:37.396Z,97187.52
2018-12-16T20:34:44.554Z,97194.27
2018-12-16T20:37:51.264Z,97190.86
2018-12-16T20:40:57.165Z,97187.57
2018-12-16T20:44:03.545Z,97198.04
2018-12-16T20:47:09.184Z,97198.45
2018-12-16T20:50:15.154Z,97200.96
2018-12-16T20:53:21.239Z,97201.02
2018-12-16T20:56:27.456Z,97196.37
2018-12-16T20:59:33.336Z,97195.58
2018-12-16T21:02:39.409Z,97201.88
2018-12-16T21:05:45.523Z,97196.00
2018-12-16T21:08:52.434Z,97199.38
2018-12-16T21:12:02.203Z,97193.09
2018-12-16T21:15:14.165Z,97198.55
2018-12-16T21:18:23.828Z,97203.17
2018-12-16T21:21:29.540Z,97202.73
2018-12-16T21:24:35.376Z,97205.25
2018-12-16T21:27:41.049Z,97208.23
2018-12-16T21:30:46.736Z,97207.80
2018-12-16T21:33:52.797Z,97204.02
2018-12-16T21:36:58.383Z,97208.64
2018-12-16T21:40:05.077Z,97213.68
2018-12-16T21:43:11.604Z,97222.09
2018-12-16T21:46:17.511Z,97219.56
2018-12-16T21:49:23.525Z,97218.31
2018-12-16T21:52:29.263Z,97221.66
2018-12-16T21:55:35.481Z,97230.05
2018-12-16T21:58:41.386Z,97234.23
2018-12-16T22:01:47.326Z,97233.41
2018-12-16T22:04:53.249Z,97236.74
2018-12-16T22:07:59.603Z,97232.16
2018-12-16T22:11:05.517Z,97230.91
2018-12-16T22:14:11.407Z,97241.39
2018-12-16T22:17:17.327Z,97245.59
2018-12-16T22:20:23.212Z,97240.16
2018-12-16T22:23:29.113Z,97246.84
2018-12-16T22:26:35.482Z,97247.27
2018-12-16T22:29:41.409Z,97257.34
2018-12-16T22:32:47.394Z,97244.76
2018-12-16T22:35:53.015Z,97246.02
2018-12-16T22:38:58.608Z,97242.67
2018-12-16T22:42:04.544Z,97244.77
2018-12-16T22:48:15.949Z,97239.34
2018-12-16T22:51:21.814Z,97235.13
2018-12-16T22:54:27.758Z,97237.24
2018-12-16T22:57:33.353Z,97238.09
2018-12-16T23:00:45.447Z,97241.03
2018-12-16T23:03:51.349Z,97241.88
2018-12-16T23:06:57.292Z,97240.62
2018-12-16T23:10:03.179Z,97248.19
2018-12-16T23:13:09.642Z,97252.37
2018-12-16T23:16:16.916Z,97249.43
2018-12-16T23:19:22.567Z,97257.02
2018-12-16T23:22:28.558Z,97262.46
2018-12-16T23:25:34.234Z,97264.58
2018-12-16T23:28:41.318Z,97273.81
2018-12-16T23:34:06.629Z,97281.80
2018-12-16T23:37:12.507Z,97279.72
2018-12-16T23:40:18.403Z,97286.41
2018-12-16T23:43:24.009Z,97284.32
2018-12-16T23:46:30.445Z,97275.08
2018-12-16T23:49:36.335Z,97272.98
2018-12-16T23:52:42.385Z,97273.83
2018-12-16T23:55:48.716Z,97274.69
2018-12-16T23:58:54.722Z,97280.99
